Terminal Aerodrome Forecast
Issued by NWS

Home | Current Version | Previous Version | Text Only | Print | Product List | Glossary On
Versions: 1 2 3 4 5 6 7 8 9 10 11 12 13 14 15 16 17 18 19 20 21 22 23 24 25 26 27 28 29 30 31 32 33 34 35 36 37 38 39 40 41 42 43 44 45 46 47 48 49 50
000
FTUS41 KCTP 170800 AAC
TAFJST
TAF AMD
KJST 170800Z 1708/1806 15005KT 2SM -RA BR SCT010 OVC050
     FM171200 17008KT 1SM -RA BR OVC002
     FM171800 21010KT 3SM -RA BR OVC004
     FM180000 24010KT 5SM -RA BR OVC003=

USA.gov is the U.S. government's official web portal to all federal, state and local government web resources and services.